sensor_id;sensor_type;location;lat;lon;timestamp;temperature;humidity
2489;DHT22;1255;48.716;9.124;2023-04-24T00:01:21;9.80;99.90
2489;DHT22;1255;48.716;9.124;2023-04-24T00:03:48;9.80;99.90
2489;DHT22;1255;48.716;9.124;2023-04-24T00:06:14;9.80;99.90
2489;DHT22;1255;48.716;9.124;2023-04-24T00:08:42;9.80;99.90
2489;DHT22;1255;48.716;9.124;2023-04-24T00:11:09;9.90;99.90
2489;DHT22;1255;48.716;9.124;2023-04-24T00:13:35;9.90;99.90
2489;DHT22;1255;48.716;9.124;2023-04-24T00:16:02;9.90;99.90
2489;DHT22;1255;48.716;9.124;2023-04-24T00:18:31;9.90;99.90
2489;DHT22;1255;48.716;9.124;2023-04-24T00:20:57;9.90;99.90
2489;DHT22;1255;48.716;9.124;2023-04-24T00:23:24;9.90;99.90
2489;DHT22;1255;48.716;9.124;2023-04-24T00:25:51;9.90;99.90
2489;DHT22;1255;48.716;9.124;2023-04-24T00:28:17;9.90;99.90
2489;DHT22;1255;48.716;9.124;2023-04-24T00:30:44;9.90;99.90
2489;DHT22;1255;48.716;9.124;2023-04-24T00:33:11;9.90;99.90
2489;DHT22;1255;48.716;9.124;2023-04-24T00:35:39;9.90;99.90
2489;DHT22;1255;48.716;9.124;2023-04-24T00:38:05;10.00;99.90
2489;DHT22;1255;48.716;9.124;2023-04-24T00:40:32;10.00;99.90
2489;DHT22;1255;48.716;9.124;2023-04-24T00:42:59;10.00;99.90
2489;DHT22;1255;48.716;9.124;2023-04-24T00:45:26;10.10;99.90
2489;DHT22;1255;48.716;9.124;2023-04-24T00:47:53;10.10;99.90
2489;DHT22;1255;48.716;9.124;2023-04-24T00:50:21;10.10;99.90
2489;DHT22;1255;48.716;9.124;2023-04-24T00:52:49;10.10;99.90
2489;DHT22;1255;48.716;9.124;2023-04-24T00:55:16;10.10;99.90
2489;DHT22;1255;48.716;9.124;2023-04-24T00:57:43;10.10;99.90
2489;DHT22;1255;48.716;9.124;2023-04-24T01:00:11;10.10;99.90
2489;DHT22;1255;48.716;9.124;2023-04-24T01:02:39;10.10;99.90
2489;DHT22;1255;48.716;9.124;2023-04-24T01:05:09;10.10;99.90
2489;DHT22;1255;48.716;9.124;2023-04-24T01:07:37;10.10;99.90
2489;DHT22;1255;48.716;9.124;2023-04-24T01:10:07;10.10;99.90
2489;DHT22;1255;48.716;9.124;2023-04-24T01:12:34;10.20;99.90
2489;DHT22;1255;48.716;9.124;2023-04-24T01:15:01;10.10;99.90
2489;DHT22;1255;48.716;9.124;2023-04-24T01:17:29;10.20;99.90
2489;DHT22;1255;48.716;9.124;2023-04-24T01:19:56;10.10;99.90
2489;DHT22;1255;48.716;9.124;2023-04-24T01:22:24;10.20;99.90
2489;DHT22;1255;48.716;9.124;2023-04-24T01:24:51;10.10;99.90
2489;DHT22;1255;48.716;9.124;2023-04-24T01:27:19;10.10;99.90
2489;DHT22;1255;48.716;9.124;2023-04-24T01:29:46;10.20;99.90
2489;DHT22;1255;48.716;9.124;2023-04-24T01:32:15;10.20;99.90
2489;DHT22;1255;48.716;9.124;2023-04-24T01:34:42;10.20;99.90
2489;DHT22;1255;48.716;9.124;2023-04-24T01:37:09;10.20;99.90
2489;DHT22;1255;48.716;9.124;2023-04-24T01:39:37;10.10;99.90
2489;DHT22;1255;48.716;9.124;2023-04-24T01:42:05;10.10;99.90
2489;DHT22;1255;48.716;9.124;2023-04-24T01:44:32;10.00;99.90
2489;DHT22;1255;48.716;9.124;2023-04-24T01:47:00;10.00;99.90
2489;DHT22;1255;48.716;9.124;2023-04-24T01:49:27;10.00;99.90
2489;DHT22;1255;48.716;9.124;2023-04-24T01:51:54;9.90;99.90
2489;DHT22;1255;48.716;9.124;2023-04-24T01:54:20;9.90;99.90
2489;DHT22;1255;48.716;9.124;2023-04-24T01:56:48;9.90;99.90
2489;DHT22;1255;48.716;9.124;2023-04-24T01:59:15;9.90;99.90
2489;DHT22;1255;48.716;9.124;2023-04-24T02:01:43;10.00;99.90
2489;DHT22;1255;48.716;9.124;2023-04-24T02:04:10;9.90;99.90
2489;DHT22;1255;48.716;9.124;2023-04-24T02:06:36;10.00;99.90
2489;DHT22;1255;48.716;9.124;2023-04-24T02:09:03;9.90;99.90
2489;DHT22;1255;48.716;9.124;2023-04-24T02:11:30;10.00;99.90
2489;DHT22;1255;48.716;9.124;2023-04-24T02:13:58;10.00;99.90
2489;DHT22;1255;48.716;9.124;2023-04-24T02:16:25;9.90;99.90
2489;DHT22;1255;48.716;9.124;2023-04-24T02:18:51;9.90;99.90
2489;DHT22;1255;48.716;9.124;2023-04-24T02:21:18;9.90;99.90
2489;DHT22;1255;48.716;9.124;2023-04-24T02:23:45;9.90;99.90
2489;DHT22;1255;48.716;9.124;2023-04-24T02:26:12;9.80;99.90
2489;DHT22;1255;48.716;9.124;2023-04-24T02:28:38;9.80;99.90
2489;DHT22;1255;48.716;9.124;2023-04-24T02:31:07;9.80;99.90
2489;DHT22;1255;48.716;9.124;2023-04-24T02:33:33;9.80;99.90
2489;DHT22;1255;48.716;9.124;2023-04-24T02:36:00;9.80;99.90
2489;DHT22;1255;48.716;9.124;2023-04-24T02:38:28;9.80;99.90
2489;DHT22;1255;48.716;9.124;2023-04-24T02:40:55;9.80;99.90
2489;DHT22;1255;48.716;9.124;2023-04-24T02:43:21;9.80;99.90
2489;DHT22;1255;48.716;9.124;2023-04-24T02:45:48;9.80;99.90
2489;DHT22;1255;48.716;9.124;2023-04-24T02:48:16;9.90;99.90
2489;DHT22;1255;48.716;9.124;2023-04-24T02:50:44;9.90;99.90
2489;DHT22;1255;48.716;9.124;2023-04-24T02:53:11;9.90;99.90
2489;DHT22;1255;48.716;9.124;2023-04-24T02:55:38;9.90;99.90
2489;DHT22;1255;48.716;9.124;2023-04-24T02:58:05;9.90;99.90
2489;DHT22;1255;48.716;9.124;2023-04-24T03:00:31;9.90;99.90
2489;DHT22;1255;48.716;9.124;2023-04-24T03:02:58;9.90;99.90
2489;DHT22;1255;48.716;9.124;2023-04-24T03:05:26;9.90;99.90
2489;DHT22;1255;48.716;9.124;2023-04-24T03:07:53;9.90;99.90
2489;DHT22;1255;48.716;9.124;2023-04-24T03:10:20;9.90;99.90
2489;DHT22;1255;48.716;9.124;2023-04-24T03:12:48;9.80;99.90
2489;DHT22;1255;48.716;9.124;2023-04-24T03:15:15;9.80;99.90
2489;DHT22;1255;48.716;9.124;2023-04-24T03:17:42;9.70;99.90
2489;DHT22;1255;48.716;9.124;2023-04-24T03:20:09;9.60;99.90
2489;DHT22;1255;48.716;9.124;2023-04-24T03:22:37;9.50;99.90
2489;DHT22;1255;48.716;9.124;2023-04-24T03:25:05;9.50;99.90
2489;DHT22;1255;48.716;9.124;2023-04-24T03:27:33;9.50;99.90
2489;DHT22;1255;48.716;9.124;2023-04-24T03:30:00;9.40;99.90
2489;DHT22;1255;48.716;9.124;2023-04-24T03:32:27;9.40;99.90
2489;DHT22;1255;48.716;9.124;2023-04-24T03:34:54;9.40;99.90
2489;DHT22;1255;48.716;9.124;2023-04-24T03:37:20;9.40;99.90
2489;DHT22;1255;48.716;9.124;2023-04-24T03:39:48;9.40;99.90
2489;DHT22;1255;48.716;9.124;2023-04-24T03:42:15;9.40;99.90
2489;DHT22;1255;48.716;9.124;2023-04-24T03:44:42;9.40;99.90
2489;DHT22;1255;48.716;9.124;2023-04-24T03:47:08;9.40;99.90
2489;DHT22;1255;48.716;9.124;2023-04-24T03:49:35;9.30;99.90
2489;DHT22;1255;48.716;9.124;2023-04-24T03:52:02;9.30;99.90
2489;DHT22;1255;48.716;9.124;2023-04-24T03:54:28;9.20;99.90
2489;DHT22;1255;48.716;9.124;2023-04-24T03:56:56;9.20;99.90
2489;DHT22;1255;48.716;9.124;2023-04-24T03:59:23;9.10;99.90
2489;DHT22;1255;48.716;9.124;2023-04-24T04:01:50;9.10;99.90
2489;DHT22;1255;48.716;9.124;2023-04-24T04:04:17;9.10;99.90
2489;DHT22;1255;48.716;9.124;2023-04-24T04:06:44;9.10;99.90
2489;DHT22;1255;48.716;9.124;2023-04-24T04:09:11;9.10;99.90
2489;DHT22;1255;48.716;9.124;2023-04-24T04:11:38;9.10;99.90
2489;DHT22;1255;48.716;9.124;2023-04-24T04:14:06;9.20;99.90
2489;DHT22;1255;48.716;9.124;2023-04-24T04:16:33;9.10;99.90
2489;DHT22;1255;48.716;9.124;2023-04-24T04:19:01;9.20;99.90
2489;DHT22;1255;48.716;9.124;2023-04-24T04:21:28;9.20;99.90
2489;DHT22;1255;48.716;9.124;2023-04-24T04:23:56;9.30;99.90
2489;DHT22;1255;48.716;9.124;2023-04-24T04:26:23;9.30;99.90
2489;DHT22;1255;48.716;9.124;2023-04-24T04:28:51;9.40;99.90
2489;DHT22;1255;48.716;9.124;2023-04-24T04:31:19;9.50;99.90
2489;DHT22;1255;48.716;9.124;2023-04-24T04:33:46;9.50;99.90
2489;DHT22;1255;48.716;9.124;2023-04-24T04:36:13;9.50;99.90
2489;DHT22;1255;48.716;9.124;2023-04-24T04:38:39;9.40;99.90
2489;DHT22;1255;48.716;9.124;2023-04-24T04:41:08;9.30;99.90
2489;DHT22;1255;48.716;9.124;2023-04-24T04:43:35;9.20;99.90
2489;DHT22;1255;48.716;9.124;2023-04-24T04:46:01;9.20;99.90
2489;DHT22;1255;48.716;9.124;2023-04-24T04:48:30;9.10;99.90
2489;DHT22;1255;48.716;9.124;2023-04-24T04:50:57;9.00;99.90
2489;DHT22;1255;48.716;9.124;2023-04-24T04:53:24;9.00;99.90
2489;DHT22;1255;48.716;9.124;2023-04-24T04:55:51;9.00;99.90
2489;DHT22;1255;48.716;9.124;2023-04-24T04:58:18;8.90;99.90
2489;DHT22;1255;48.716;9.124;2023-04-24T05:00:45;8.90;99.90
2489;DHT22;1255;48.716;9.124;2023-04-24T05:03:12;8.90;99.90
2489;DHT22;1255;48.716;9.124;2023-04-24T05:05:40;8.90;99.90
2489;DHT22;1255;48.716;9.124;2023-04-24T05:08:06;9.00;99.90
2489;DHT22;1255;48.716;9.124;2023-04-24T05:10:33;9.00;99.90
2489;DHT22;1255;48.716;9.124;2023-04-24T05:13:02;9.00;99.90
2489;DHT22;1255;48.716;9.124;2023-04-24T05:15:29;9.00;99.90
2489;DHT22;1255;48.716;9.124;2023-04-24T05:17:56;9.00;99.90
2489;DHT22;1255;48.716;9.124;2023-04-24T05:20:23;9.00;99.90
2489;DHT22;1255;48.716;9.124;2023-04-24T05:22:51;9.00;99.90
2489;DHT22;1255;48.716;9.124;2023-04-24T05:25:18;8.90;99.90
2489;DHT22;1255;48.716;9.124;2023-04-24T05:27:45;9.00;99.90
2489;DHT22;1255;48.716;9.124;2023-04-24T05:30:12;9.00;99.90
2489;DHT22;1255;48.716;9.124;2023-04-24T05:32:39;9.00;99.90
2489;DHT22;1255;48.716;9.124;2023-04-24T05:35:06;9.00;99.90
2489;DHT22;1255;48.716;9.124;2023-04-24T05:37:33;9.00;99.90
2489;DHT22;1255;48.716;9.124;2023-04-24T05:40:01;9.10;99.90
2489;DHT22;1255;48.716;9.124;2023-04-24T05:42:30;9.20;99.90
2489;DHT22;1255;48.716;9.124;2023-04-24T05:44:56;9.20;99.90
2489;DHT22;1255;48.716;9.124;2023-04-24T05:47:23;9.20;99.90
2489;DHT22;1255;48.716;9.124;2023-04-24T05:49:51;9.20;99.90
2489;DHT22;1255;48.716;9.124;2023-04-24T05:52:18;9.20;99.90
2489;DHT22;1255;48.716;9.124;2023-04-24T05:54:45;9.20;99.90
2489;DHT22;1255;48.716;9.124;2023-04-24T05:57:13;9.20;99.90
2489;DHT22;1255;48.716;9.124;2023-04-24T05:59:40;9.20;99.90
2489;DHT22;1255;48.716;9.124;2023-04-24T06:02:07;9.10;99.90
2489;DHT22;1255;48.716;9.124;2023-04-24T06:04:33;9.10;99.90
2489;DHT22;1255;48.716;9.124;2023-04-24T06:07:00;9.10;99.90
2489;DHT22;1255;48.716;9.124;2023-04-24T06:09:28;9.10;99.90
2489;DHT22;1255;48.716;9.124;2023-04-24T06:11:55;9.00;99.90
2489;DHT22;1255;48.716;9.124;2023-04-24T06:14:23;9.10;99.90
2489;DHT22;1255;48.716;9.124;2023-04-24T06:16:50;9.10;99.90
2489;DHT22;1255;48.716;9.124;2023-04-24T06:19:16;9.00;99.90
2489;DHT22;1255;48.716;9.124;2023-04-24T06:21:43;9.00;99.90
2489;DHT22;1255;48.716;9.124;2023-04-24T06:24:10;9.10;99.90
2489;DHT22;1255;48.716;9.124;2023-04-24T06:26:37;9.10;99.90
2489;DHT22;1255;48.716;9.124;2023-04-24T06:29:04;9.20;99.90
2489;DHT22;1255;48.716;9.124;2023-04-24T06:31:32;9.30;99.90
2489;DHT22;1255;48.716;9.124;2023-04-24T06:34:02;9.40;99.90
2489;DHT22;1255;48.716;9.124;2023-04-24T06:36:28;9.50;99.90
2489;DHT22;1255;48.716;9.124;2023-04-24T06:38:56;9.60;99.90
2489;DHT22;1255;48.716;9.124;2023-04-24T06:41:23;9.80;99.90
2489;DHT22;1255;48.716;9.124;2023-04-24T06:43:49;9.80;99.90
2489;DHT22;1255;48.716;9.124;2023-04-24T06:46:16;10.00;99.90
2489;DHT22;1255;48.716;9.124;2023-04-24T06:48:44;10.20;99.90
2489;DHT22;1255;48.716;9.124;2023-04-24T06:51:11;10.40;99.90
2489;DHT22;1255;48.716;9.124;2023-04-24T06:53:37;10.60;99.90
2489;DHT22;1255;48.716;9.124;2023-04-24T06:56:04;10.90;99.90
2489;DHT22;1255;48.716;9.124;2023-04-24T06:58:31;11.20;99.90
2489;DHT22;1255;48.716;9.124;2023-04-24T07:00:57;11.20;99.90
2489;DHT22;1255;48.716;9.124;2023-04-24T07:03:24;11.30;99.90
2489;DHT22;1255;48.716;9.124;2023-04-24T07:05:52;11.50;99.90
2489;DHT22;1255;48.716;9.124;2023-04-24T07:08:19;11.90;99.90
2489;DHT22;1255;48.716;9.124;2023-04-24T07:10:48;12.20;99.90
2489;DHT22;1255;48.716;9.124;2023-04-24T07:13:14;12.20;99.90
2489;DHT22;1255;48.716;9.124;2023-04-24T07:15:41;11.90;99.90
2489;DHT22;1255;48.716;9.124;2023-04-24T07:18:08;11.70;99.90
2489;DHT22;1255;48.716;9.124;2023-04-24T07:20:34;11.40;99.90
2489;DHT22;1255;48.716;9.124;2023-04-24T07:23:02;11.00;99.90
2489;DHT22;1255;48.716;9.124;2023-04-24T07:25:29;10.90;99.90
2489;DHT22;1255;48.716;9.124;2023-04-24T07:27:57;10.80;99.90
2489;DHT22;1255;48.716;9.124;2023-04-24T07:30:23;10.60;99.90
2489;DHT22;1255;48.716;9.124;2023-04-24T07:32:50;10.60;99.90
2489;DHT22;1255;48.716;9.124;2023-04-24T07:35:17;10.60;99.90
2489;DHT22;1255;48.716;9.124;2023-04-24T07:37:45;10.60;99.90
2489;DHT22;1255;48.716;9.124;2023-04-24T07:40:13;10.70;99.90
2489;DHT22;1255;48.716;9.124;2023-04-24T07:42:40;10.90;99.90
2489;DHT22;1255;48.716;9.124;2023-04-24T07:45:07;11.20;99.90
2489;DHT22;1255;48.716;9.124;2023-04-24T07:47:34;11.40;99.90
2489;DHT22;1255;48.716;9.124;2023-04-24T07:50:04;11.60;99.90
2489;DHT22;1255;48.716;9.124;2023-04-24T07:52:32;11.80;99.90
2489;DHT22;1255;48.716;9.124;2023-04-24T07:54:59;12.00;99.90
2489;DHT22;1255;48.716;9.124;2023-04-24T07:57:29;12.20;99.90
2489;DHT22;1255;48.716;9.124;2023-04-24T07:59:56;12.40;99.90
2489;DHT22;1255;48.716;9.124;2023-04-24T08:02:23;12.40;99.90
2489;DHT22;1255;48.716;9.124;2023-04-24T08:04:52;12.20;99.90
2489;DHT22;1255;48.716;9.124;2023-04-24T08:07:20;12.30;99.90
2489;DHT22;1255;48.716;9.124;2023-04-24T08:09:47;12.30;99.90
2489;DHT22;1255;48.716;9.124;2023-04-24T08:12:14;12.30;99.90
2489;DHT22;1255;48.716;9.124;2023-04-24T08:14:43;12.10;99.90
2489;DHT22;1255;48.716;9.124;2023-04-24T08:17:10;12.00;99.90
2489;DHT22;1255;48.716;9.124;2023-04-24T08:19:37;12.00;99.90
2489;DHT22;1255;48.716;9.124;2023-04-24T08:22:04;11.80;99.90
2489;DHT22;1255;48.716;9.124;2023-04-24T08:24:31;11.80;99.90
2489;DHT22;1255;48.716;9.124;2023-04-24T08:26:58;11.90;99.90
2489;DHT22;1255;48.716;9.124;2023-04-24T08:29:24;12.10;99.90
2489;DHT22;1255;48.716;9.124;2023-04-24T08:31:53;12.60;99.90
2489;DHT22;1255;48.716;9.124;2023-04-24T08:34:20;13.00;99.90
2489;DHT22;1255;48.716;9.124;2023-04-24T08:36:47;13.60;99.90
2489;DHT22;1255;48.716;9.124;2023-04-24T08:39:14;14.00;99.90
2489;DHT22;1255;48.716;9.124;2023-04-24T08:41:42;14.10;99.90
2489;DHT22;1255;48.716;9.124;2023-04-24T08:44:11;13.90;99.90
2489;DHT22;1255;48.716;9.124;2023-04-24T08:46:38;13.70;99.90
2489;DHT22;1255;48.716;9.124;2023-04-24T08:49:07;13.30;99.90
2489;DHT22;1255;48.716;9.124;2023-04-24T08:51:34;13.10;99.90
2489;DHT22;1255;48.716;9.124;2023-04-24T08:54:03;13.00;99.90
2489;DHT22;1255;48.716;9.124;2023-04-24T08:56:33;12.80;99.90
2489;DHT22;1255;48.716;9.124;2023-04-24T08:59:03;12.70;99.90
2489;DHT22;1255;48.716;9.124;2023-04-24T09:01:32;12.70;99.90
2489;DHT22;1255;48.716;9.124;2023-04-24T09:04:01;13.20;99.90
2489;DHT22;1255;48.716;9.124;2023-04-24T09:06:30;13.90;99.90
2489;DHT22;1255;48.716;9.124;2023-04-24T09:09:00;14.60;99.90
2489;DHT22;1255;48.716;9.124;2023-04-24T09:11:27;15.00;99.90
2489;DHT22;1255;48.716;9.124;2023-04-24T09:13:54;15.00;99.90
2489;DHT22;1255;48.716;9.124;2023-04-24T09:16:22;14.80;99.90
2489;DHT22;1255;48.716;9.124;2023-04-24T09:18:49;14.80;99.90
2489;DHT22;1255;48.716;9.124;2023-04-24T09:21:16;15.00;99.60
2489;DHT22;1255;48.716;9.124;2023-04-24T09:23:44;15.10;99.60
2489;DHT22;1255;48.716;9.124;2023-04-24T09:26:11;14.60;99.90
2489;DHT22;1255;48.716;9.124;2023-04-24T09:28:40;14.20;99.90
2489;DHT22;1255;48.716;9.124;2023-04-24T09:31:08;13.60;99.20
2489;DHT22;1255;48.716;9.124;2023-04-24T09:33:36;13.40;99.60
2489;DHT22;1255;48.716;9.124;2023-04-24T09:36:03;13.40;99.00
2489;DHT22;1255;48.716;9.124;2023-04-24T09:38:32;14.00;98.00
2489;DHT22;1255;48.716;9.124;2023-04-24T09:41:01;14.70;98.10
2489;DHT22;1255;48.716;9.124;2023-04-24T09:43:29;15.20;95.80
2489;DHT22;1255;48.716;9.124;2023-04-24T09:45:56;15.80;96.10
2489;DHT22;1255;48.716;9.124;2023-04-24T09:48:30;16.00;95.20
2489;DHT22;1255;48.716;9.124;2023-04-24T09:50:57;15.90;95.30
2489;DHT22;1255;48.716;9.124;2023-04-24T09:53:25;16.00;93.70
2489;DHT22;1255;48.716;9.124;2023-04-24T09:55:52;15.90;94.30
2489;DHT22;1255;48.716;9.124;2023-04-24T09:58:24;16.00;94.80
2489;DHT22;1255;48.716;9.124;2023-04-24T10:00:54;16.10;95.30
2489;DHT22;1255;48.716;9.124;2023-04-24T10:03:24;16.00;94.20
2489;DHT22;1255;48.716;9.124;2023-04-24T10:05:53;15.30;95.10
2489;DHT22;1255;48.716;9.124;2023-04-24T10:08:20;15.40;94.80
2489;DHT22;1255;48.716;9.124;2023-04-24T10:10:48;16.20;94.20
2489;DHT22;1255;48.716;9.124;2023-04-24T10:13:16;16.60;93.50
2489;DHT22;1255;48.716;9.124;2023-04-24T10:15:44;17.10;93.40
2489;DHT22;1255;48.716;9.124;2023-04-24T10:18:15;17.10;92.60
2489;DHT22;1255;48.716;9.124;2023-04-24T10:20:42;17.30;92.70
2489;DHT22;1255;48.716;9.124;2023-04-24T10:23:11;17.60;93.60
2489;DHT22;1255;48.716;9.124;2023-04-24T10:25:38;18.00;91.10
2489;DHT22;1255;48.716;9.124;2023-04-24T10:28:05;17.60;91.60
2489;DHT22;1255;48.716;9.124;2023-04-24T10:30:33;18.20;93.00
2489;DHT22;1255;48.716;9.124;2023-04-24T10:33:03;18.40;91.30
2489;DHT22;1255;48.716;9.124;2023-04-24T10:35:31;18.20;91.40
2489;DHT22;1255;48.716;9.124;2023-04-24T10:38:03;17.00;90.60
2489;DHT22;1255;48.716;9.124;2023-04-24T10:40:32;15.90;92.40
2489;DHT22;1255;48.716;9.124;2023-04-24T10:43:01;15.10;93.50
2489;DHT22;1255;48.716;9.124;2023-04-24T10:45:28;15.00;93.70
2489;DHT22;1255;48.716;9.124;2023-04-24T10:47:58;16.00;93.20
2489;DHT22;1255;48.716;9.124;2023-04-24T10:50:29;16.20;93.20
2489;DHT22;1255;48.716;9.124;2023-04-24T10:53:05;15.80;93.60
2489;DHT22;1255;48.716;9.124;2023-04-24T10:55:47;15.80;94.10
2489;DHT22;1255;48.716;9.124;2023-04-24T10:58:15;15.70;93.50
2489;DHT22;1255;48.716;9.124;2023-04-24T11:00:43;15.60;93.60
2489;DHT22;1255;48.716;9.124;2023-04-24T11:03:25;15.10;93.80
2489;DHT22;1255;48.716;9.124;2023-04-24T11:05:57;14.80;93.90
2489;DHT22;1255;48.716;9.124;2023-04-24T11:08:26;14.40;94.30
2489;DHT22;1255;48.716;9.124;2023-04-24T11:11:06;13.90;94.70
2489;DHT22;1255;48.716;9.124;2023-04-24T11:14:04;13.60;95.30
2489;DHT22;1255;48.716;9.124;2023-04-24T11:16:34;13.40;96.00
2489;DHT22;1255;48.716;9.124;2023-04-24T11:19:03;13.20;96.50
2489;DHT22;1255;48.716;9.124;2023-04-24T11:21:39;13.20;96.20
2489;DHT22;1255;48.716;9.124;2023-04-24T11:24:29;13.10;96.40
2489;DHT22;1255;48.716;9.124;2023-04-24T11:26:58;13.10;97.00
2489;DHT22;1255;48.716;9.124;2023-04-24T11:29:42;13.20;97.00
2489;DHT22;1255;48.716;9.124;2023-04-24T11:32:29;13.30;96.00
2489;DHT22;1255;48.716;9.124;2023-04-24T11:34:57;13.60;95.80
2489;DHT22;1255;48.716;9.124;2023-04-24T11:37:27;13.70;95.60
2489;DHT22;1255;48.716;9.124;2023-04-24T11:39:55;13.80;95.90
2489;DHT22;1255;48.716;9.124;2023-04-24T11:42:22;13.60;96.10
2489;DHT22;1255;48.716;9.124;2023-04-24T11:44:49;13.40;96.90
2489;DHT22;1255;48.716;9.124;2023-04-24T11:47:16;12.90;96.70
2489;DHT22;1255;48.716;9.124;2023-04-24T11:49:43;12.50;97.20
2489;DHT22;1255;48.716;9.124;2023-04-24T11:52:09;12.50;97.80
2489;DHT22;1255;48.716;9.124;2023-04-24T11:54:38;12.30;97.10
2489;DHT22;1255;48.716;9.124;2023-04-24T11:57:12;12.40;97.20
2489;DHT22;1255;48.716;9.124;2023-04-24T11:59:39;12.40;97.30
2489;DHT22;1255;48.716;9.124;2023-04-24T12:02:06;12.60;96.60
2489;DHT22;1255;48.716;9.124;2023-04-24T12:04:39;12.80;96.80
2489;DHT22;1255;48.716;9.124;2023-04-24T12:07:07;13.10;97.00
2489;DHT22;1255;48.716;9.124;2023-04-24T12:09:42;13.00;97.10
2489;DHT22;1255;48.716;9.124;2023-04-24T12:12:10;13.00;97.50
2489;DHT22;1255;48.716;9.124;2023-04-24T12:14:51;12.70;97.10
2489;DHT22;1255;48.716;9.124;2023-04-24T12:17:24;12.40;97.70
2489;DHT22;1255;48.716;9.124;2023-04-24T12:19:51;12.20;98.10
2489;DHT22;1255;48.716;9.124;2023-04-24T12:22:18;12.00;97.80
2489;DHT22;1255;48.716;9.124;2023-04-24T12:25:01;11.90;98.20
2489;DHT22;1255;48.716;9.124;2023-04-24T12:27:31;11.90;97.70
2489;DHT22;1255;48.716;9.124;2023-04-24T12:30:00;12.00;97.80
2489;DHT22;1255;48.716;9.124;2023-04-24T12:32:27;12.20;97.70
2489;DHT22;1255;48.716;9.124;2023-04-24T12:34:54;12.40;98.20
2489;DHT22;1255;48.716;9.124;2023-04-24T12:37:23;12.60;97.40
2489;DHT22;1255;48.716;9.124;2023-04-24T12:40:01;12.60;97.70
2489;DHT22;1255;48.716;9.124;2023-04-24T12:42:29;12.50;97.70
2489;DHT22;1255;48.716;9.124;2023-04-24T12:44:57;12.30;98.20
2489;DHT22;1255;48.716;9.124;2023-04-24T12:47:25;12.20;98.40
2489;DHT22;1255;48.716;9.124;2023-04-24T12:49:52;12.10;98.60
2489;DHT22;1255;48.716;9.124;2023-04-24T12:52:20;11.90;98.90
2489;DHT22;1255;48.716;9.124;2023-04-24T12:54:47;11.70;99.10
2489;DHT22;1255;48.716;9.124;2023-04-24T12:57:26;11.60;99.60
2489;DHT22;1255;48.716;9.124;2023-04-24T13:00:00;11.30;99.20
2489;DHT22;1255;48.716;9.124;2023-04-24T13:02:28;11.10;99.80
2489;DHT22;1255;48.716;9.124;2023-04-24T13:04:55;11.10;99.90
2489;DHT22;1255;48.716;9.124;2023-04-24T13:07:22;11.10;99.90
2489;DHT22;1255;48.716;9.124;2023-04-24T13:09:50;11.10;99.90
2489;DHT22;1255;48.716;9.124;2023-04-24T13:12:18;11.20;99.90
2489;DHT22;1255;48.716;9.124;2023-04-24T13:14:46;11.20;99.90
2489;DHT22;1255;48.716;9.124;2023-04-24T13:17:13;11.20;99.90
2489;DHT22;1255;48.716;9.124;2023-04-24T13:19:41;11.40;99.90
2489;DHT22;1255;48.716;9.124;2023-04-24T13:22:10;11.70;99.90
2489;DHT22;1255;48.716;9.124;2023-04-24T13:24:37;12.00;99.90
2489;DHT22;1255;48.716;9.124;2023-04-24T13:27:05;12.30;99.90
2489;DHT22;1255;48.716;9.124;2023-04-24T13:29:33;13.00;99.90
2489;DHT22;1255;48.716;9.124;2023-04-24T13:32:00;13.90;99.90
2489;DHT22;1255;48.716;9.124;2023-04-24T13:34:27;14.20;98.90
2489;DHT22;1255;48.716;9.124;2023-04-24T13:36:55;14.00;98.20
2489;DHT22;1255;48.716;9.124;2023-04-24T13:39:22;13.30;98.40
2489;DHT22;1255;48.716;9.124;2023-04-24T13:41:49;12.90;99.00
2489;DHT22;1255;48.716;9.124;2023-04-24T13:44:16;12.50;99.60
2489;DHT22;1255;48.716;9.124;2023-04-24T13:46:45;12.10;99.90
2489;DHT22;1255;48.716;9.124;2023-04-24T13:49:13;11.90;99.90
2489;DHT22;1255;48.716;9.124;2023-04-24T13:51:41;11.70;99.90
2489;DHT22;1255;48.716;9.124;2023-04-24T13:54:08;11.50;99.90
2489;DHT22;1255;48.716;9.124;2023-04-24T13:56:35;11.50;99.90
2489;DHT22;1255;48.716;9.124;2023-04-24T13:59:01;11.60;99.90
2489;DHT22;1255;48.716;9.124;2023-04-24T14:01:28;11.90;99.90
2489;DHT22;1255;48.716;9.124;2023-04-24T14:03:56;12.20;99.90
2489;DHT22;1255;48.716;9.124;2023-04-24T14:06:23;12.40;99.90
2489;DHT22;1255;48.716;9.124;2023-04-24T14:08:50;12.50;99.90
2489;DHT22;1255;48.716;9.124;2023-04-24T14:11:17;12.40;99.90
2489;DHT22;1255;48.716;9.124;2023-04-24T14:13:44;12.30;99.90
2489;DHT22;1255;48.716;9.124;2023-04-24T14:16:12;12.10;99.90
2489;DHT22;1255;48.716;9.124;2023-04-24T14:18:39;11.90;99.90
2489;DHT22;1255;48.716;9.124;2023-04-24T14:21:07;11.80;99.90
2489;DHT22;1255;48.716;9.124;2023-04-24T14:23:34;11.70;99.90
2489;DHT22;1255;48.716;9.124;2023-04-24T14:26:01;11.60;99.90
2489;DHT22;1255;48.716;9.124;2023-04-24T14:28:27;11.30;99.90
2489;DHT22;1255;48.716;9.124;2023-04-24T14:30:54;11.10;99.90
2489;DHT22;1255;48.716;9.124;2023-04-24T14:33:21;11.00;99.90
2489;DHT22;1255;48.716;9.124;2023-04-24T14:35:47;11.10;99.90
2489;DHT22;1255;48.716;9.124;2023-04-24T14:38:16;11.60;99.90
2489;DHT22;1255;48.716;9.124;2023-04-24T14:40:42;12.10;99.90
2489;DHT22;1255;48.716;9.124;2023-04-24T14:43:09;12.70;99.90
2489;DHT22;1255;48.716;9.124;2023-04-24T14:45:37;13.00;99.90
2489;DHT22;1255;48.716;9.124;2023-04-24T14:48:05;12.80;99.90
2489;DHT22;1255;48.716;9.124;2023-04-24T14:50:33;12.60;99.90
2489;DHT22;1255;48.716;9.124;2023-04-24T14:53:00;12.40;99.90
2489;DHT22;1255;48.716;9.124;2023-04-24T14:55:29;12.60;99.90
2489;DHT22;1255;48.716;9.124;2023-04-24T14:57:55;13.00;99.90
2489;DHT22;1255;48.716;9.124;2023-04-24T15:00:22;13.60;99.90
2489;DHT22;1255;48.716;9.124;2023-04-24T15:02:49;14.00;99.90
2489;DHT22;1255;48.716;9.124;2023-04-24T15:05:16;14.00;99.90
2489;DHT22;1255;48.716;9.124;2023-04-24T15:07:43;13.90;99.90
2489;DHT22;1255;48.716;9.124;2023-04-24T15:10:11;13.50;99.90
2489;DHT22;1255;48.716;9.124;2023-04-24T15:12:39;13.10;99.90
2489;DHT22;1255;48.716;9.124;2023-04-24T15:15:07;12.80;99.90
2489;DHT22;1255;48.716;9.124;2023-04-24T15:17:34;12.50;99.90
2489;DHT22;1255;48.716;9.124;2023-04-24T15:20:01;12.40;99.90
2489;DHT22;1255;48.716;9.124;2023-04-24T15:22:28;12.10;99.90
2489;DHT22;1255;48.716;9.124;2023-04-24T15:24:55;12.00;99.90
2489;DHT22;1255;48.716;9.124;2023-04-24T15:27:22;11.90;99.90
2489;DHT22;1255;48.716;9.124;2023-04-24T15:29:50;11.90;99.90
2489;DHT22;1255;48.716;9.124;2023-04-24T15:32:18;11.90;99.90
2489;DHT22;1255;48.716;9.124;2023-04-24T15:34:45;11.80;99.90
2489;DHT22;1255;48.716;9.124;2023-04-24T15:37:12;11.70;99.90
2489;DHT22;1255;48.716;9.124;2023-04-24T15:39:39;11.60;99.90
2489;DHT22;1255;48.716;9.124;2023-04-24T15:42:05;11.30;99.90
2489;DHT22;1255;48.716;9.124;2023-04-24T15:44:32;11.10;99.90
2489;DHT22;1255;48.716;9.124;2023-04-24T15:47:01;10.80;99.90
2489;DHT22;1255;48.716;9.124;2023-04-24T15:49:27;10.70;99.90
2489;DHT22;1255;48.716;9.124;2023-04-24T15:51:54;10.80;99.90
2489;DHT22;1255;48.716;9.124;2023-04-24T15:54:21;10.90;99.90
2489;DHT22;1255;48.716;9.124;2023-04-24T15:56:49;10.90;99.90
2489;DHT22;1255;48.716;9.124;2023-04-24T15:59:16;10.90;99.90
2489;DHT22;1255;48.716;9.124;2023-04-24T16:01:43;11.00;99.90
2489;DHT22;1255;48.716;9.124;2023-04-24T16:04:11;11.00;99.90
2489;DHT22;1255;48.716;9.124;2023-04-24T16:06:38;11.00;99.90
2489;DHT22;1255;48.716;9.124;2023-04-24T16:09:04;11.20;99.90
2489;DHT22;1255;48.716;9.124;2023-04-24T16:11:33;11.40;99.90